Time,TemperatureF,DewpointF,PressureIn,WindDirection,WindDirectionDegrees,WindSpeedMPH,WindSpeedGustMPH,Humidity,HourlyPrecipIn,Conditions,Clouds,dailyrainin,SoftwareType,DateUTC
2013-03-21 00:02:00,11.0,7.0,-100.00,ESE,110,9.0,11.0,85,-99.99,,,-99.99,,2013-03-21 05:02:00,
2013-03-21 00:33:00,11.0,7.0,-100.00,ESE,110,9.0,11.0,85,-99.99,,,-99.99,,2013-03-21 05:33:00,
2013-03-21 00:44:00,11.0,7.0,-100.00,ESE,110,9.0,11.0,85,-99.99,,,-99.99,,2013-03-21 05:44:00,
2013-03-21 00:52:00,11.0,7.0,-100.00,ESE,110,9.0,11.0,85,-99.99,,,-99.99,,2013-03-21 05:52:00,
2013-03-21 01:02:00,10.0,7.0,-100.00,ESE,105,10.0,11.0,87,-99.99,,,-99.99,,2013-03-21 06:02:00,
2013-03-21 01:32:00,10.0,7.0,-100.00,ESE,105,10.0,11.0,87,-99.99,,,-99.99,,2013-03-21 06:32:00,
2013-03-21 01:42:00,10.0,7.0,-100.00,ESE,105,10.0,11.0,87,-99.99,,,-99.99,,2013-03-21 06:42:00,
2013-03-21 01:52:00,10.0,7.0,-100.00,ESE,105,10.0,11.0,87,-99.99,,,-99.99,,2013-03-21 06:52:00,
2013-03-21 02:02:00,9.0,6.0,-100.00,ESE,120,6.0,6.0,89,-99.99,,,-99.99,,2013-03-21 07:02:00,
2013-03-21 02:32:00,9.0,6.0,-100.00,ESE,120,6.0,6.0,89,-99.99,,,-99.99,,2013-03-21 07:32:00,
2013-03-21 02:43:00,9.0,6.0,-100.00,ESE,120,6.0,6.0,89,-99.99,,,-99.99,,2013-03-21 07:43:00,
2013-03-21 02:52:00,9.0,6.0,-100.00,ESE,120,6.0,6.0,89,-99.99,,,-99.99,,2013-03-21 07:52:00,
2013-03-21 03:02:00,8.0,5.0,-100.00,ESE,110,6.0,7.0,89,-99.99,,,-99.99,,2013-03-21 08:02:00,
2013-03-21 03:33:00,8.0,5.0,-100.00,ESE,110,6.0,7.0,89,-99.99,,,-99.99,,2013-03-21 08:33:00,
2013-03-21 03:43:00,8.0,5.0,-100.00,ESE,110,6.0,7.0,89,-99.99,,,-99.99,,2013-03-21 08:43:00,
2013-03-21 03:52:00,8.0,5.0,-100.00,ESE,110,6.0,7.0,89,-99.99,,,-99.99,,2013-03-21 08:52:00,
2013-03-21 04:02:00,8.0,5.0,-100.00,ESE,110,7.0,9.0,89,-99.99,,,-99.99,,2013-03-21 09:02:00,
2013-03-21 04:33:00,8.0,5.0,-100.00,ESE,110,7.0,9.0,89,-99.99,,,-99.99,,2013-03-21 09:33:00,
2013-03-21 04:43:00,8.0,5.0,-100.00,ESE,110,7.0,9.0,89,-99.99,,,-99.99,,2013-03-21 09:43:00,
2013-03-21 04:53:00,8.0,5.0,-100.00,ESE,110,7.0,9.0,89,-99.99,,,-99.99,,2013-03-21 09:53:00,
2013-03-21 05:02:00,7.0,5.0,-100.00,East,100,7.0,9.0,89,-99.99,,,-99.99,,2013-03-21 10:02:00,
2013-03-21 05:34:00,7.0,5.0,-100.00,East,100,7.0,9.0,89,-99.99,,,-99.99,,2013-03-21 10:34:00,
2013-03-21 05:43:00,7.0,5.0,-100.00,East,100,7.0,9.0,89,-99.99,,,-99.99,,2013-03-21 10:43:00,
2013-03-21 05:53:00,7.0,5.0,-100.00,East,100,7.0,9.0,89,-99.99,,,-99.99,,2013-03-21 10:53:00,
2013-03-21 06:02:00,6.0,3.0,-100.00,East,100,9.0,11.0,86,-99.99,,,-99.99,,2013-03-21 11:02:00,
2013-03-21 06:33:00,6.0,3.0,-100.00,East,100,9.0,11.0,86,-99.99,,,-99.99,,2013-03-21 11:33:00,
2013-03-21 06:43:00,6.0,3.0,-100.00,East,100,9.0,11.0,86,-99.99,,,-99.99,,2013-03-21 11:43:00,
2013-03-21 06:53:00,6.0,3.0,-100.00,East,100,9.0,11.0,86,-99.99,,,-99.99,,2013-03-21 11:53:00,
2013-03-21 07:02:00,5.0,1.0,-100.00,East,100,8.0,9.0,84,-99.99,,,-99.99,,2013-03-21 12:02:00,
2013-03-21 07:33:00,5.0,1.0,-100.00,East,100,8.0,9.0,84,-99.99,,,-99.99,,2013-03-21 12:33:00,
2013-03-21 07:43:00,5.0,1.0,-100.00,East,100,8.0,9.0,84,-99.99,,,-99.99,,2013-03-21 12:43:00,
2013-03-21 07:53:00,5.0,1.0,-100.00,East,100,8.0,9.0,84,-99.99,,,-99.99,,2013-03-21 12:53:00,
2013-03-21 08:02:00,5.0,1.0,-100.00,East,90,10.0,14.0,85,-99.99,,,-99.99,,2013-03-21 13:02:00,
2013-03-21 08:33:00,5.0,1.0,-100.00,East,90,10.0,14.0,85,-99.99,,,-99.99,,2013-03-21 13:33:00,
2013-03-21 08:42:00,5.0,1.0,-100.00,East,90,10.0,14.0,85,-99.99,,,-99.99,,2013-03-21 13:42:00,
2013-03-21 08:52:00,5.0,1.0,-100.00,East,90,10.0,14.0,85,-99.99,,,-99.99,,2013-03-21 13:52:00,
2013-03-21 09:02:00,7.0,3.0,-100.00,ESE,110,8.0,10.0,81,-99.99,,,-99.99,,2013-03-21 14:02:00,
2013-03-21 09:32:00,7.0,3.0,-100.00,ESE,110,8.0,10.0,81,-99.99,,,-99.99,,2013-03-21 14:32:00,
2013-03-21 09:43:00,7.0,3.0,-100.00,ESE,110,8.0,10.0,81,-99.99,,,-99.99,,2013-03-21 14:43:00,
2013-03-21 09:52:00,7.0,3.0,-100.00,ESE,110,8.0,10.0,81,-99.99,,,-99.99,,2013-03-21 14:52:00,
2013-03-21 11:02:00,15.0,6.0,-100.00,SE,125,7.0,9.0,65,-99.99,,,-99.99,,2013-03-21 16:02:00,
2013-03-21 11:33:00,15.0,6.0,-100.00,SE,125,7.0,9.0,65,-99.99,,,-99.99,,2013-03-21 16:33:00,
2013-03-21 11:42:00,15.0,6.0,-100.00,SE,125,7.0,9.0,65,-99.99,,,-99.99,,2013-03-21 16:42:00,
2013-03-21 11:53:00,15.0,6.0,-100.00,SE,125,7.0,9.0,65,-99.99,,,-99.99,,2013-03-21 16:53:00,
2013-03-21 12:02:00,20.0,7.0,-100.00,ESE,110,6.0,7.0,57,-99.99,,,-99.99,,2013-03-21 17:02:00,
2013-03-21 12:33:00,20.0,7.0,-100.00,ESE,110,6.0,7.0,57,-99.99,,,-99.99,,2013-03-21 17:33:00,
2013-03-21 12:43:00,20.0,7.0,-100.00,ESE,110,6.0,7.0,57,-99.99,,,-99.99,,2013-03-21 17:43:00,
2013-03-21 12:53:00,20.0,7.0,-100.00,ESE,110,6.0,7.0,57,-99.99,,,-99.99,,2013-03-21 17:53:00,
2013-03-21 13:02:00,23.0,7.0,-100.00,ESE,115,8.0,10.0,50,-99.99,,,-99.99,,2013-03-21 18:02:00,
2013-03-21 13:32:00,23.0,7.0,-100.00,ESE,115,8.0,10.0,50,-99.99,,,-99.99,,2013-03-21 18:32:00,
2013-03-21 13:43:00,23.0,7.0,-100.00,ESE,115,8.0,10.0,50,-99.99,,,-99.99,,2013-03-21 18:43:00,
2013-03-21 13:52:00,23.0,7.0,-100.00,ESE,115,8.0,10.0,50,-99.99,,,-99.99,,2013-03-21 18:52:00,
2013-03-21 14:02:00,25.0,8.0,-100.00,ESE,120,6.0,8.0,47,-99.99,,,-99.99,,2013-03-21 19:02:00,
2013-03-21 14:32:00,25.0,8.0,-100.00,ESE,120,6.0,8.0,47,-99.99,,,-99.99,,2013-03-21 19:32:00,
2013-03-21 14:43:00,25.0,8.0,-100.00,ESE,120,6.0,8.0,47,-99.99,,,-99.99,,2013-03-21 19:43:00,
2013-03-21 14:53:00,25.0,8.0,-100.00,ESE,120,6.0,8.0,47,-99.99,,,-99.99,,2013-03-21 19:53:00,
2013-03-21 15:02:00,24.0,13.0,-100.00,East,95,17.0,23.0,63,-99.99,,,-99.99,,2013-03-21 20:02:00,
2013-03-21 15:33:00,24.0,13.0,-100.00,East,95,17.0,23.0,63,-99.99,,,-99.99,,2013-03-21 20:33:00,
2013-03-21 15:42:00,24.0,13.0,-100.00,East,95,17.0,23.0,63,-99.99,,,-99.99,,2013-03-21 20:42:00,
2013-03-21 15:53:00,24.0,13.0,-100.00,East,95,17.0,23.0,63,-99.99,,,-99.99,,2013-03-21 20:53:00,
2013-03-21 16:02:00,24.0,15.0,-100.00,East,100,16.0,20.0,66,-99.99,,,-99.99,,2013-03-21 21:02:00,
2013-03-21 16:33:00,24.0,15.0,-100.00,East,100,16.0,20.0,66,-99.99,,,-99.99,,2013-03-21 21:33:00,
2013-03-21 16:43:00,24.0,15.0,-100.00,East,100,16.0,20.0,66,-99.99,,,-99.99,,2013-03-21 21:43:00,
2013-03-21 16:53:00,24.0,15.0,-100.00,East,100,16.0,20.0,66,-99.99,,,-99.99,,2013-03-21 21:53:00,
2013-03-21 17:02:00,25.0,16.0,-100.00,East,100,15.0,17.0,69,-99.99,,,-99.99,,2013-03-21 22:02:00,
2013-03-21 17:34:00,25.0,16.0,-100.00,East,100,15.0,17.0,69,-99.99,,,-99.99,,2013-03-21 22:34:00,
2013-03-21 17:43:00,25.0,16.0,-100.00,East,100,15.0,17.0,69,-99.99,,,-99.99,,2013-03-21 22:43:00,
2013-03-21 17:53:00,25.0,16.0,-100.00,East,100,15.0,17.0,69,-99.99,,,-99.99,,2013-03-21 22:53:00,
2013-03-21 18:02:00,25.0,14.0,-100.00,East,100,13.0,17.0,62,-99.99,,,-99.99,,2013-03-21 23:02:00,
2013-03-21 18:33:00,25.0,14.0,-100.00,East,100,13.0,17.0,62,-99.99,,,-99.99,,2013-03-21 23:33:00,
2013-03-21 18:43:00,25.0,14.0,-100.00,East,100,13.0,17.0,62,-99.99,,,-99.99,,2013-03-21 23:43:00,
2013-03-21 18:53:00,25.0,14.0,-100.00,East,100,13.0,17.0,62,-99.99,,,-99.99,,2013-03-21 23:53:00,
2013-03-21 19:02:00,22.0,14.0,-100.00,East,95,17.0,19.0,73,-99.99,,,-99.99,,2013-03-22 00:02:00,
2013-03-21 19:32:00,22.0,14.0,-100.00,East,95,17.0,19.0,73,-99.99,,,-99.99,,2013-03-22 00:32:00,
2013-03-21 19:42:00,22.0,14.0,-100.00,East,95,17.0,19.0,73,-99.99,,,-99.99,,2013-03-22 00:42:00,
2013-03-21 19:52:00,22.0,14.0,-100.00,East,95,17.0,19.0,73,-99.99,,,-99.99,,2013-03-22 00:52:00,
2013-03-21 20:02:00,19.0,13.0,-100.00,ESE,110,14.0,17.0,78,-99.99,,,-99.99,,2013-03-22 01:02:00,
2013-03-21 20:33:00,19.0,13.0,-100.00,ESE,110,14.0,17.0,78,-99.99,,,-99.99,,2013-03-22 01:33:00,
2013-03-21 20:43:00,19.0,13.0,-100.00,ESE,110,14.0,17.0,78,-99.99,,,-99.99,,2013-03-22 01:43:00,
2013-03-21 20:53:00,19.0,13.0,-100.00,ESE,110,14.0,17.0,78,-99.99,,,-99.99,,2013-03-22 01:53:00,
2013-03-21 21:02:00,17.0,13.0,-100.00,ESE,110,16.0,18.0,82,-99.99,,,-99.99,,2013-03-22 02:02:00,
2013-03-21 21:32:00,17.0,13.0,-100.00,ESE,110,16.0,18.0,82,-99.99,,,-99.99,,2013-03-22 02:32:00,
2013-03-21 21:43:00,17.0,13.0,-100.00,ESE,110,16.0,18.0,82,-99.99,,,-99.99,,2013-03-22 02:43:00,
2013-03-21 21:53:00,17.0,13.0,-100.00,ESE,110,16.0,18.0,82,-99.99,,,-99.99,,2013-03-22 02:53:00,
2013-03-21 22:02:00,16.0,12.0,-100.00,East,100,10.0,12.0,83,-99.99,,,-99.99,,2013-03-22 03:02:00,
2013-03-21 22:33:00,16.0,12.0,-100.00,East,100,10.0,12.0,83,-99.99,,,-99.99,,2013-03-22 03:33:00,
2013-03-21 22:43:00,16.0,12.0,-100.00,East,100,10.0,12.0,83,-99.99,,,-99.99,,2013-03-22 03:43:00,
2013-03-21 22:53:00,16.0,12.0,-100.00,East,100,10.0,12.0,83,-99.99,,,-99.99,,2013-03-22 03:53:00,
2013-03-21 23:02:00,16.0,11.0,-100.00,ESE,115,6.0,7.0,83,-99.99,,,-99.99,,2013-03-22 04:02:00,
2013-03-21 23:32:00,16.0,11.0,-100.00,ESE,115,6.0,7.0,83,-99.99,,,-99.99,,2013-03-22 04:32:00,
2013-03-21 23:43:00,16.0,11.0,-100.00,ESE,115,6.0,7.0,83,-99.99,,,-99.99,,2013-03-22 04:43:00,
2013-03-21 23:52:00,16.0,11.0,-100.00,ESE,115,6.0,7.0,83,-99.99,,,-99.99,,2013-03-22 04:52:00,